createdAt,value
2023-03-14T00:00:21.117Z,65.43
2023-03-14T00:00:53.610Z,65.18
2023-03-14T00:01:25.822Z,65.77
2023-03-14T00:01:58.458Z,65.90
2023-03-14T00:02:30.200Z,65.40
2023-03-14T00:03:01.999Z,65.35
2023-03-14T00:03:33.910Z,65.43
2023-03-14T00:04:06.356Z,65.39
2023-03-14T00:04:38.160Z,65.57
2023-03-14T00:05:10.447Z,65.01
2023-03-14T00:05:42.161Z,66.22
2023-03-14T00:06:14.677Z,65.61
2023-03-14T00:06:47.948Z,65.96
2023-03-14T00:07:19.742Z,65.83
2023-03-14T00:07:51.674Z,65.98
2023-03-14T00:08:24.792Z,66.52
2023-03-14T00:08:56.549Z,65.96
2023-03-14T00:09:30.772Z,65.80
2023-03-14T00:10:08.479Z,66.25
2023-03-14T00:10:40.449Z,66.46
2023-03-14T00:11:19.104Z,65.51
2023-03-14T00:11:50.826Z,64.59
2023-03-14T00:12:22.562Z,65.18
2023-03-14T00:12:54.281Z,65.00
2023-03-14T00:13:26.049Z,65.28
2023-03-14T00:13:58.282Z,65.05
2023-03-14T00:14:30.882Z,64.95
2023-03-14T00:15:04.584Z,64.55
2023-03-14T00:15:36.840Z,64.82
2023-03-14T00:16:13.597Z,64.54
2023-03-14T00:16:48.389Z,64.75
2023-03-14T00:17:20.158Z,64.40
2023-03-14T00:17:51.939Z,64.26
2023-03-14T00:18:24.526Z,65.27
2023-03-14T00:18:56.313Z,64.87
2023-03-14T00:19:28.093Z,64.73
2023-03-14T00:20:05.345Z,64.41
2023-03-14T00:20:37.088Z,64.78
2023-03-14T00:21:11.690Z,64.00
2023-03-14T00:21:43.453Z,64.00
2023-03-14T00:22:15.218Z,64.69
2023-03-14T00:22:46.957Z,64.08
2023-03-14T00:23:18.709Z,63.89
2023-03-14T00:23:50.521Z,63.64
2023-03-14T00:24:22.290Z,63.76
2023-03-14T00:24:54.057Z,64.25
2023-03-14T00:25:25.881Z,63.35
2023-03-14T00:26:06.233Z,63.70
2023-03-14T00:26:37.954Z,63.38
2023-03-14T00:27:09.716Z,63.75
2023-03-14T00:27:41.634Z,63.56
2023-03-14T00:28:14.095Z,63.48
2023-03-14T00:28:46.340Z,63.71
2023-03-14T00:29:18.197Z,63.68
2023-03-14T00:29:49.972Z,62.98
2023-03-14T00:30:21.873Z,62.46
2023-03-14T00:30:53.731Z,62.06
2023-03-14T00:31:25.674Z,62.19
2023-03-14T00:31:57.493Z,61.83
2023-03-14T00:32:29.343Z,62.23
2023-03-14T00:33:01.112Z,62.26
2023-03-14T00:33:33.021Z,62.07
2023-03-14T00:34:04.800Z,62.29
2023-03-14T00:34:36.543Z,62.58
2023-03-14T00:35:08.657Z,62.37
2023-03-14T00:35:40.435Z,62.55
2023-03-14T00:36:15.000Z,62.44
2023-03-14T00:36:46.819Z,62.57
2023-03-14T00:37:18.692Z,62.76
2023-03-14T00:37:50.461Z,62.85
2023-03-14T00:38:22.426Z,62.93
2023-03-14T00:38:54.313Z,62.77
2023-03-14T00:39:26.112Z,62.51
2023-03-14T00:39:59.666Z,62.84
2023-03-14T00:40:31.416Z,62.74
2023-03-14T00:41:08.177Z,62.36
2023-03-14T00:41:39.893Z,62.29
2023-03-14T00:42:11.770Z,62.47
2023-03-14T00:42:43.561Z,62.74
2023-03-14T00:43:15.316Z,62.74
2023-03-14T00:43:47.119Z,63.14
2023-03-14T00:44:18.831Z,63.15
2023-03-14T00:44:50.592Z,62.95
2023-03-14T00:45:22.362Z,62.60
2023-03-14T00:45:54.118Z,62.09
2023-03-14T00:46:25.916Z,61.24
2023-03-14T00:46:58.206Z,61.30
2023-03-14T00:47:29.968Z,61.22
2023-03-14T00:48:02.371Z,61.43
2023-03-14T00:48:34.891Z,61.05
2023-03-14T00:49:06.786Z,61.63
2023-03-14T00:49:38.780Z,61.47
2023-03-14T00:50:11.278Z,61.66
2023-03-14T00:50:43.036Z,61.73
2023-03-14T00:51:16.173Z,62.28
2023-03-14T00:51:48.038Z,62.47
2023-03-14T00:52:19.842Z,62.41
2023-03-14T00:52:51.620Z,62.26
2023-03-14T00:53:24.085Z,62.72
2023-03-14T00:53:55.841Z,62.94
2023-03-14T00:54:27.619Z,62.95
2023-03-14T00:54:59.399Z,62.75
2023-03-14T00:55:31.544Z,62.07
2023-03-14T00:56:05.541Z,61.99
2023-03-14T00:56:37.382Z,61.79
2023-03-14T00:57:09.099Z,61.71
2023-03-14T00:57:41.040Z,61.58
2023-03-14T00:58:15.370Z,61.69
2023-03-14T00:58:47.151Z,61.68
2023-03-14T00:59:19.016Z,62.16
2023-03-14T00:59:51.910Z,62.12
2023-03-14T01:00:24.755Z,62.02
2023-03-14T01:00:56.514Z,62.37
2023-03-14T01:01:28.351Z,62.96
2023-03-14T01:02:00.236Z,62.10
2023-03-14T01:02:32.081Z,62.03
2023-03-14T01:03:05.201Z,63.01
2023-03-14T01:03:37.348Z,62.68
2023-03-14T01:04:09.299Z,62.63
2023-03-14T01:04:41.112Z,62.23
2023-03-14T01:05:12.928Z,62.49
2023-03-14T01:05:44.672Z,62.41
2023-03-14T01:06:19.878Z,62.49
2023-03-14T01:06:51.693Z,62.45
2023-03-14T01:07:23.479Z,62.47
2023-03-14T01:07:55.349Z,62.73
2023-03-14T01:08:27.150Z,62.84
2023-03-14T01:08:59.275Z,62.38
2023-03-14T01:09:30.991Z,62.53
2023-03-14T01:10:02.896Z,62.21
2023-03-14T01:10:35.997Z,62.01
2023-03-14T01:11:13.395Z,62.06
2023-03-14T01:11:47.552Z,62.07
2023-03-14T01:12:19.366Z,61.70
2023-03-14T01:12:51.198Z,62.09
2023-03-14T01:13:22.966Z,62.22
2023-03-14T01:13:55.680Z,62.49
2023-03-14T01:14:27.487Z,61.82
2023-03-14T01:14:59.332Z,62.01
2023-03-14T01:15:34.251Z,62.03
2023-03-14T01:16:08.545Z,62.09
2023-03-14T01:16:40.313Z,62.40
2023-03-14T01:17:12.182Z,62.29
2023-03-14T01:17:44.018Z,62.25
2023-03-14T01:18:15.730Z,62.17
2023-03-14T01:18:48.726Z,62.73
2023-03-14T01:19:20.480Z,62.48
2023-03-14T01:19:52.258Z,62.52
2023-03-14T01:20:24.019Z,61.94
2023-03-14T01:20:55.751Z,61.73
2023-03-14T01:21:30.425Z,62.06
2023-03-14T01:22:02.249Z,62.48
2023-03-14T01:22:34.063Z,62.39
2023-03-14T01:23:05.851Z,62.78
2023-03-14T01:23:37.865Z,62.67
2023-03-14T01:24:12.999Z,62.69
2023-03-14T01:24:44.888Z,62.17
2023-03-14T01:25:18.186Z,62.69
2023-03-14T01:25:49.949Z,62.94
2023-03-14T01:26:24.328Z,62.84
2023-03-14T01:26:56.060Z,62.32
2023-03-14T01:27:27.847Z,62.50
2023-03-14T01:28:00.117Z,62.30
2023-03-14T01:28:31.871Z,62.80
2023-03-14T01:29:04.636Z,62.39
2023-03-14T01:29:36.385Z,62.29
2023-03-14T01:30:09.208Z,62.16
2023-03-14T01:30:40.941Z,61.44
2023-03-14T01:31:12.851Z,61.45
2023-03-14T01:31:44.695Z,61.60
2023-03-14T01:32:16.523Z,61.38
2023-03-14T01:32:48.333Z,61.11
2023-03-14T01:33:20.539Z,60.98
2023-03-14T01:33:52.449Z,61.41
2023-03-14T01:34:24.387Z,61.08
2023-03-14T01:34:56.120Z,61.43
2023-03-14T01:35:27.914Z,61.45
2023-03-14T01:35:59.971Z,61.24
2023-03-14T01:36:31.888Z,61.23
2023-03-14T01:37:03.999Z,61.40
2023-03-14T01:37:35.825Z,61.59
2023-03-14T01:38:07.564Z,61.88
2023-03-14T01:38:40.919Z,61.64
2023-03-14T01:39:14.075Z,61.55
2023-03-14T01:39:48.392Z,61.59
2023-03-14T01:40:20.335Z,61.57
2023-03-14T01:40:52.108Z,61.26
2023-03-14T01:41:26.897Z,61.13
2023-03-14T01:42:00.368Z,61.71
2023-03-14T01:42:32.262Z,61.31
2023-03-14T01:43:17.055Z,61.92
2023-03-14T01:43:49.853Z,61.81
2023-03-14T01:44:22.168Z,61.67
2023-03-14T01:44:55.367Z,61.85
2023-03-14T01:45:57.867Z,62.33
2023-03-14T01:46:48.177Z,61.86
2023-03-14T01:47:20.200Z,62.07
2023-03-14T01:47:51.932Z,62.26
2023-03-14T01:48:24.017Z,62.73
2023-03-14T01:49:01.264Z,62.84
2023-03-14T01:49:37.020Z,62.71
2023-03-14T01:50:13.411Z,62.46
2023-03-14T01:50:45.158Z,62.61
2023-03-14T01:51:25.729Z,62.75
2023-03-14T01:52:05.840Z,62.95
2023-03-14T01:52:47.359Z,62.23
2023-03-14T01:53:22.350Z,62.27
2023-03-14T01:54:01.926Z,61.99
2023-03-14T01:54:42.580Z,61.57
2023-03-14T01:55:18.555Z,61.41
2023-03-14T01:55:53.630Z,61.81
2023-03-14T01:56:25.953Z,61.32
2023-03-14T01:57:12.297Z,60.90
2023-03-14T01:58:04.160Z,60.58
2023-03-14T01:58:36.749Z,59.97
2023-03-14T01:59:11.734Z,60.02
2023-03-14T01:59:51.878Z,60.04
2023-03-14T02:00:24.624Z,60.09
2023-03-14T02:00:59.867Z,60.10
2023-03-14T02:01:31.731Z,60.51
2023-03-14T02:02:08.585Z,59.89
2023-03-14T02:02:44.269Z,60.29
2023-03-14T02:03:18.907Z,60.09
2023-03-14T02:03:55.254Z,59.75
2023-03-14T02:04:32.904Z,60.74
2023-03-14T02:05:05.289Z,60.49
2023-03-14T02:05:41.722Z,60.51
2023-03-14T02:06:19.129Z,61.50
2023-03-14T02:07:03.141Z,61.11
2023-03-14T02:08:08.135Z,60.32
2023-03-14T02:08:41.190Z,60.11
2023-03-14T02:09:12.943Z,60.56
2023-03-14T02:09:45.540Z,60.59
2023-03-14T02:10:24.985Z,59.91
2023-03-14T02:10:56.829Z,59.32
2023-03-14T02:11:31.170Z,59.46
2023-03-14T02:12:03.116Z,59.92
2023-03-14T02:12:36.868Z,60.19
2023-03-14T02:13:09.029Z,60.11
2023-03-14T02:13:40.994Z,60.07
2023-03-14T02:14:26.404Z,60.16
2023-03-14T02:14:58.173Z,60.02
2023-03-14T02:15:30.634Z,60.74
2023-03-14T02:16:02.781Z,60.89
2023-03-14T02:16:36.835Z,61.23
2023-03-14T02:17:09.196Z,61.50
2023-03-14T02:17:44.928Z,61.93
2023-03-14T02:18:17.792Z,61.62
2023-03-14T02:18:49.573Z,61.12
2023-03-14T02:19:35.889Z,61.08
2023-03-14T02:20:10.674Z,61.12
2023-03-14T02:21:06.376Z,62.98
2023-03-14T02:21:58.054Z,62.04
2023-03-14T02:22:30.058Z,61.53
2023-03-14T02:23:02.533Z,61.24
2023-03-14T02:23:54.599Z,61.20
2023-03-14T02:25:01.149Z,61.27
2023-03-14T02:26:28.828Z,60.81
2023-03-14T02:27:15.781Z,61.23
2023-03-14T02:27:49.505Z,61.84
2023-03-14T02:28:21.555Z,62.17
2023-03-14T02:28:54.520Z,62.04
2023-03-14T02:29:26.969Z,62.06
2023-03-14T02:30:03.737Z,62.29
2023-03-14T02:30:36.425Z,62.13
2023-03-14T02:31:09.732Z,62.36
2023-03-14T02:31:41.702Z,62.44
2023-03-14T02:32:15.873Z,62.26
2023-03-14T02:32:53.018Z,62.42
2023-03-14T02:33:25.190Z,62.28
2023-03-14T02:33:59.381Z,62.07
2023-03-14T02:34:32.859Z,61.90
2023-03-14T02:35:10.516Z,62.44
2023-03-14T02:35:51.860Z,62.33
2023-03-14T02:36:25.138Z,62.49
2023-03-14T02:36:57.528Z,62.55
2023-03-14T02:37:37.918Z,62.61
2023-03-14T02:38:34.949Z,62.86
2023-03-14T02:39:13.027Z,62.63
2023-03-14T02:39:46.425Z,62.47
2023-03-14T02:40:18.327Z,62.32
2023-03-14T02:40:50.299Z,62.00
2023-03-14T02:41:22.125Z,62.46
2023-03-14T02:41:53.831Z,61.73
2023-03-14T02:42:25.620Z,61.95
2023-03-14T02:42:57.591Z,61.86
2023-03-14T02:43:29.389Z,62.36
2023-03-14T02:44:01.236Z,62.38
2023-03-14T02:44:33.048Z,61.94
2023-03-14T02:45:07.660Z,61.84
2023-03-14T02:45:48.735Z,62.17
2023-03-14T02:46:22.639Z,62.32
2023-03-14T02:46:54.601Z,62.63
2023-03-14T02:47:31.624Z,62.80
2023-03-14T02:48:10.110Z,63.17
2023-03-14T02:48:50.947Z,62.79
2023-03-14T02:49:23.233Z,63.38
2023-03-14T02:50:07.820Z,63.02
2023-03-14T02:50:39.955Z,62.88
2023-03-14T02:51:12.957Z,62.80
2023-03-14T02:51:46.367Z,63.13
2023-03-14T02:52:18.125Z,62.39
2023-03-14T02:52:50.114Z,61.92
2023-03-14T02:53:33.551Z,61.49
2023-03-14T02:54:05.432Z,61.85
2023-03-14T02:54:37.235Z,61.64
2023-03-14T02:55:09.999Z,61.66
2023-03-14T02:55:46.136Z,61.40
2023-03-14T02:56:18.173Z,61.62
2023-03-14T02:56:49.923Z,61.78
2023-03-14T02:57:21.693Z,62.01
2023-03-14T02:57:54.133Z,62.27
2023-03-14T02:58:26.380Z,61.99
2023-03-14T02:58:58.877Z,62.28
2023-03-14T02:59:30.631Z,61.90
2023-03-14T03:00:06.165Z,62.12
2023-03-14T03:00:37.950Z,61.55
2023-03-14T03:01:09.842Z,62.08
2023-03-14T03:01:41.742Z,61.64
2023-03-14T03:02:13.659Z,61.62
2023-03-14T03:02:45.939Z,61.60
2023-03-14T03:03:18.285Z,61.85
2023-03-14T03:03:50.061Z,61.88
2023-03-14T03:04:21.771Z,61.62
2023-03-14T03:04:53.585Z,61.99
2023-03-14T03:05:25.365Z,62.10
2023-03-14T03:05:57.911Z,61.58
2023-03-14T03:06:30.139Z,61.24
2023-03-14T03:07:02.055Z,61.30
2023-03-14T03:07:33.770Z,61.11
2023-03-14T03:08:06.560Z,61.26
2023-03-14T03:08:38.417Z,60.31
2023-03-14T03:09:10.216Z,60.75
2023-03-14T03:09:41.976Z,60.21
2023-03-14T03:10:14.117Z,59.78
2023-03-14T03:10:45.950Z,59.84
2023-03-14T03:11:17.677Z,59.55
2023-03-14T03:11:49.389Z,59.57
2023-03-14T03:12:21.171Z,59.34
2023-03-14T03:12:53.062Z,58.73
2023-03-14T03:13:43.383Z,58.29
2023-03-14T03:14:15.113Z,58.06
2023-03-14T03:14:46.865Z,58.11
2023-03-14T03:15:19.095Z,57.89
2023-03-14T03:15:51.112Z,57.77
2023-03-14T03:16:22.898Z,58.25
2023-03-14T03:16:54.789Z,58.16
2023-03-14T03:17:26.600Z,58.36
2023-03-14T03:17:58.388Z,58.02
2023-03-14T03:18:30.252Z,58.43
2023-03-14T03:19:02.087Z,58.12
2023-03-14T03:19:35.200Z,58.53
2023-03-14T03:20:10.176Z,57.95
2023-03-14T03:21:01.852Z,57.95
2023-03-14T03:21:33.587Z,57.57
2023-03-14T03:22:05.383Z,57.55
2023-03-14T03:22:38.308Z,57.38
2023-03-14T03:23:10.244Z,57.47
2023-03-14T03:23:42.027Z,57.36
2023-03-14T03:24:13.780Z,57.85
2023-03-14T03:24:45.613Z,57.32
2023-03-14T03:25:17.995Z,58.38
2023-03-14T03:25:52.219Z,57.25
2023-03-14T03:26:23.990Z,56.00
2023-03-14T03:26:55.820Z,55.63
2023-03-14T03:27:27.633Z,55.79
2023-03-14T03:27:59.452Z,55.61
2023-03-14T03:28:31.365Z,55.37
2023-03-14T03:29:03.669Z,55.47
2023-03-14T03:29:35.437Z,55.30
2023-03-14T03:30:08.046Z,55.15
2023-03-14T03:30:41.393Z,55.02
2023-03-14T03:31:13.530Z,54.74
2023-03-14T03:31:46.517Z,54.35
2023-03-14T03:32:18.383Z,53.84
2023-03-14T03:32:50.757Z,53.54
2023-03-14T03:33:23.661Z,54.00
2023-03-14T03:33:55.393Z,54.19
2023-03-14T03:34:29.341Z,55.10
2023-03-14T03:35:01.118Z,55.72
2023-03-14T03:35:33.523Z,55.40
2023-03-14T03:36:05.811Z,54.95
2023-03-14T03:36:37.611Z,54.74
2023-03-14T03:37:09.481Z,54.85
2023-03-14T03:37:41.547Z,55.43
2023-03-14T03:38:14.286Z,55.42
2023-03-14T03:38:46.010Z,55.81
2023-03-14T03:39:17.729Z,55.32
2023-03-14T03:39:52.145Z,55.06
2023-03-14T03:40:24.030Z,55.73
2023-03-14T03:40:55.798Z,55.64
2023-03-14T03:41:27.626Z,55.50
2023-03-14T03:41:59.372Z,55.81
2023-03-14T03:42:31.182Z,55.84
2023-03-14T03:43:04.976Z,55.97
2023-03-14T03:43:36.798Z,56.38
2023-03-14T03:44:08.582Z,56.18
2023-03-14T03:44:40.380Z,55.96
2023-03-14T03:45:12.219Z,55.65
2023-03-14T03:45:44.006Z,55.54
2023-03-14T03:46:16.099Z,55.05
2023-03-14T03:46:48.507Z,54.60
2023-03-14T03:47:20.241Z,55.43
2023-03-14T03:47:52.041Z,56.71
2023-03-14T03:48:23.941Z,56.34
2023-03-14T03:48:57.859Z,56.52
2023-03-14T03:49:33.561Z,57.13
2023-03-14T03:50:05.873Z,57.42
2023-03-14T03:50:37.714Z,57.24
2023-03-14T03:51:14.549Z,57.35
2023-03-14T03:51:47.336Z,57.25
2023-03-14T03:52:19.422Z,56.95
2023-03-14T03:52:51.234Z,57.45
2023-03-14T03:53:32.865Z,57.09
2023-03-14T03:54:05.550Z,57.33
2023-03-14T03:54:37.627Z,56.85
2023-03-14T03:55:09.745Z,56.37
2023-03-14T03:55:44.408Z,56.42
2023-03-14T03:56:16.552Z,55.87
2023-03-14T03:56:48.344Z,56.21
2023-03-14T03:57:21.097Z,55.73
2023-03-14T03:57:53.449Z,56.21
2023-03-14T03:58:25.240Z,55.92
2023-03-14T03:58:57.037Z,55.90
2023-03-14T03:59:28.808Z,55.95
2023-03-14T04:00:00.654Z,55.97
2023-03-14T04:00:34.110Z,56.07
2023-03-14T04:01:09.693Z,56.27
2023-03-14T04:01:41.798Z,55.81
2023-03-14T04:02:13.960Z,55.77
2023-03-14T04:02:46.238Z,55.89
2023-03-14T04:03:18.123Z,55.16
2023-03-14T04:03:50.181Z,55.97
2023-03-14T04:04:22.144Z,55.58
2023-03-14T04:04:54.194Z,55.13
2023-03-14T04:05:26.356Z,55.14
2023-03-14T04:06:03.205Z,55.29
2023-03-14T04:06:35.464Z,55.22
2023-03-14T04:07:07.292Z,57.24
2023-03-14T04:07:39.080Z,55.94
2023-03-14T04:08:10.910Z,55.27
2023-03-14T04:08:42.757Z,56.27
2023-03-14T04:09:14.722Z,56.39
2023-03-14T04:09:46.588Z,56.21
2023-03-14T04:10:18.512Z,55.77
2023-03-14T04:10:50.274Z,55.02
2023-03-14T04:11:21.983Z,55.03
2023-03-14T04:11:53.768Z,54.95
2023-03-14T04:12:25.583Z,54.90
2023-03-14T04:12:57.384Z,55.33
2023-03-14T04:13:29.703Z,55.37
2023-03-14T04:14:01.500Z,55.44
2023-03-14T04:14:33.226Z,55.68
2023-03-14T04:15:05.429Z,56.16
2023-03-14T04:15:37.304Z,56.02
2023-03-14T04:16:18.685Z,57.09
2023-03-14T04:16:50.498Z,57.18
2023-03-14T04:17:22.900Z,57.13
2023-03-14T04:17:59.278Z,56.88
2023-03-14T04:18:31.464Z,56.59
2023-03-14T04:19:04.250Z,56.47
2023-03-14T04:19:36.039Z,56.20
2023-03-14T04:20:11.764Z,57.09
2023-03-14T04:20:43.665Z,58.00
2023-03-14T04:21:16.712Z,57.02
2023-03-14T04:21:48.545Z,56.64
2023-03-14T04:22:20.637Z,56.68
2023-03-14T04:22:52.394Z,56.86
2023-03-14T04:23:25.656Z,56.92
2023-03-14T04:23:57.467Z,57.21
2023-03-14T04:24:29.331Z,57.24
2023-03-14T04:25:03.446Z,56.49
2023-03-14T04:25:35.289Z,56.58
2023-03-14T04:26:07.365Z,56.93
2023-03-14T04:26:39.158Z,56.62
2023-03-14T04:27:11.038Z,56.73
2023-03-14T04:27:42.806Z,55.98
2023-03-14T04:28:14.558Z,56.22
2023-03-14T04:28:46.355Z,56.24
2023-03-14T04:29:18.301Z,56.59
2023-03-14T04:29:50.079Z,56.67
2023-03-14T04:30:21.855Z,57.47
2023-03-14T04:30:53.612Z,57.79
2023-03-14T04:31:25.429Z,57.75
2023-03-14T04:31:57.304Z,57.25
2023-03-14T04:32:29.130Z,57.17
2023-03-14T04:33:03.325Z,56.83
2023-03-14T04:33:35.091Z,56.89
2023-03-14T04:34:06.885Z,56.79
2023-03-14T04:34:38.757Z,56.82
2023-03-14T04:35:10.664Z,56.42
2023-03-14T04:35:42.439Z,56.19
2023-03-14T04:36:14.933Z,56.47
2023-03-14T04:36:46.652Z,56.40
2023-03-14T04:37:18.401Z,56.92
2023-03-14T04:37:50.228Z,56.48
2023-03-14T04:38:22.107Z,56.73
2023-03-14T04:38:53.878Z,56.64
2023-03-14T04:39:25.726Z,56.40
2023-03-14T04:39:57.471Z,56.39
2023-03-14T04:40:29.239Z,56.50
2023-03-14T04:41:01.718Z,56.31
2023-03-14T04:41:33.509Z,56.69
2023-03-14T04:42:05.296Z,56.01
2023-03-14T04:42:37.156Z,56.06
2023-03-14T04:43:10.866Z,56.34
2023-03-14T04:43:42.611Z,56.75
2023-03-14T04:44:14.372Z,56.68
2023-03-14T04:44:47.955Z,56.64
2023-03-14T04:45:19.851Z,56.85
2023-03-14T04:45:51.674Z,56.95
2023-03-14T04:46:23.630Z,57.46
2023-03-14T04:46:55.699Z,57.62
2023-03-14T04:47:27.790Z,58.01
2023-03-14T04:47:59.566Z,57.93
2023-03-14T04:48:31.559Z,57.92
2023-03-14T04:49:03.407Z,58.07
2023-03-14T04:49:35.251Z,58.03
2023-03-14T04:50:07.385Z,57.89
2023-03-14T04:50:39.463Z,58.13
2023-03-14T04:51:11.212Z,58.19
2023-03-14T04:51:42.982Z,57.99
2023-03-14T04:52:14.937Z,58.07
2023-03-14T04:52:46.708Z,58.12
2023-03-14T04:53:19.358Z,58.27
2023-03-14T04:53:51.142Z,58.66
2023-03-14T04:54:22.944Z,58.30
2023-03-14T04:54:54.764Z,57.85
2023-03-14T04:55:26.520Z,57.89
2023-03-14T04:55:58.386Z,57.92
2023-03-14T04:56:30.198Z,57.39
2023-03-14T04:57:01.959Z,57.14
2023-03-14T04:57:33.771Z,57.20
2023-03-14T04:58:05.686Z,57.62
2023-03-14T04:58:37.468Z,57.56
2023-03-14T04:59:09.603Z,57.27
2023-03-14T04:59:41.440Z,56.97
2023-03-14T05:00:13.451Z,56.48
2023-03-14T05:00:45.362Z,56.28
2023-03-14T05:01:17.187Z,56.31
2023-03-14T05:01:51.006Z,57.23
2023-03-14T05:02:22.916Z,57.21
2023-03-14T05:02:54.748Z,57.71
2023-03-14T05:03:26.532Z,57.84
2023-03-14T05:03:58.274Z,57.87
2023-03-14T05:04:30.596Z,57.88
2023-03-14T05:05:02.725Z,58.19
2023-03-14T05:05:34.624Z,58.46
2023-03-14T05:06:06.728Z,58.88
2023-03-14T05:06:38.529Z,58.76
2023-03-14T05:07:10.294Z,58.47
2023-03-14T05:07:42.050Z,58.61
2023-03-14T05:08:14.185Z,58.68
2023-03-14T05:08:46.041Z,58.89
2023-03-14T05:09:17.877Z,58.12
2023-03-14T05:09:49.781Z,58.03
2023-03-14T05:10:21.592Z,59.05
2023-03-14T05:10:57.147Z,59.07
2023-03-14T05:11:29.233Z,58.32
2023-03-14T05:12:01.163Z,58.27
2023-03-14T05:12:32.963Z,57.73
2023-03-14T05:13:05.024Z,57.94
2023-03-14T05:13:39.206Z,57.67
2023-03-14T05:14:12.452Z,57.75
2023-03-14T05:14:44.218Z,57.53
2023-03-14T05:15:16.060Z,57.10
2023-03-14T05:15:47.945Z,57.28
2023-03-14T05:16:19.815Z,56.35
2023-03-14T05:16:51.622Z,55.99
2023-03-14T05:17:23.417Z,56.01
2023-03-14T05:17:58.044Z,56.65
2023-03-14T05:18:29.763Z,56.90
2023-03-14T05:19:02.601Z,56.40
2023-03-14T05:19:36.033Z,56.71
2023-03-14T05:20:10.170Z,57.01
2023-03-14T05:20:42.043Z,56.86
2023-03-14T05:21:13.911Z,56.48
2023-03-14T05:21:45.790Z,55.81
2023-03-14T05:22:17.596Z,56.17
2023-03-14T05:22:49.409Z,55.96
2023-03-14T05:23:21.236Z,55.87
2023-03-14T05:23:53.039Z,56.58
2023-03-14T05:24:24.924Z,54.75
2023-03-14T05:24:58.195Z,54.20
2023-03-14T05:25:32.239Z,54.27
2023-03-14T05:26:04.480Z,53.93
2023-03-14T05:26:36.271Z,53.78
2023-03-14T05:27:08.040Z,54.98
2023-03-14T05:27:39.877Z,54.19
2023-03-14T05:28:11.648Z,54.32
2023-03-14T05:28:43.876Z,55.11
2023-03-14T05:29:15.642Z,54.92
2023-03-14T05:29:48.352Z,55.46
2023-03-14T05:30:20.199Z,55.37
2023-03-14T05:30:52.025Z,55.32
2023-03-14T05:31:23.960Z,55.09
2023-03-14T05:31:55.848Z,54.92
2023-03-14T05:32:27.760Z,55.33
2023-03-14T05:32:59.673Z,55.15
2023-03-14T05:33:31.422Z,55.03
2023-03-14T05:34:03.213Z,54.94
2023-03-14T05:34:35.361Z,55.01
2023-03-14T05:35:07.486Z,55.48
2023-03-14T05:35:39.265Z,55.46
2023-03-14T05:36:11.170Z,55.00
2023-03-14T05:36:43.002Z,54.00
2023-03-14T05:37:14.761Z,54.45
2023-03-14T05:37:46.619Z,54.53
2023-03-14T05:38:18.425Z,55.51
2023-03-14T05:38:50.265Z,55.04
2023-03-14T05:39:22.079Z,54.63
2023-03-14T05:39:53.860Z,54.51
2023-03-14T05:40:25.868Z,55.47
2023-03-14T05:40:57.945Z,55.76
2023-03-14T05:41:30.416Z,55.48
2023-03-14T05:42:02.151Z,55.10
2023-03-14T05:42:34.600Z,54.47
2023-03-14T05:43:09.038Z,54.48
2023-03-14T05:43:40.919Z,53.76
2023-03-14T05:44:12.731Z,52.35
2023-03-14T05:44:44.706Z,52.63
2023-03-14T05:45:16.568Z,53.02
2023-03-14T05:45:48.428Z,53.41
2023-03-14T05:46:20.302Z,53.29
2023-03-14T05:46:52.089Z,53.37
2023-03-14T05:47:24.113Z,52.47
2023-03-14T05:47:55.937Z,51.92
2023-03-14T05:48:27.843Z,52.37
2023-03-14T05:49:00.945Z,51.51
2023-03-14T05:49:35.232Z,51.87
2023-03-14T05:50:07.513Z,52.16
2023-03-14T05:50:39.326Z,52.32
2023-03-14T05:51:11.334Z,52.61
2023-03-14T05:51:43.560Z,52.52
2023-03-14T05:52:15.901Z,50.74
2023-03-14T05:52:47.687Z,51.19
2023-03-14T05:53:19.455Z,50.83
2023-03-14T05:53:51.274Z,49.52
2023-03-14T05:54:23.054Z,50.16
2023-03-14T05:54:54.837Z,49.43
2023-03-14T05:55:27.440Z,48.69
2023-03-14T05:55:59.226Z,49.13
2023-03-14T05:56:31.017Z,49.70
2023-03-14T05:57:02.743Z,49.75
2023-03-14T05:57:34.502Z,50.00
2023-03-14T05:58:06.293Z,49.55
2023-03-14T05:58:39.454Z,48.89
2023-03-14T05:59:11.436Z,48.91
2023-03-14T05:59:43.216Z,48.87
2023-03-14T06:00:15.449Z,48.48
2023-03-14T06:00:47.276Z,48.03
2023-03-14T06:01:19.047Z,47.39
2023-03-14T06:01:50.864Z,47.55
2023-03-14T06:02:22.827Z,47.74
2023-03-14T06:02:54.620Z,47.49
2023-03-14T06:03:26.467Z,47.65
2023-03-14T06:03:58.349Z,48.32
2023-03-14T06:04:30.151Z,48.29
2023-03-14T06:05:01.979Z,47.76
2023-03-14T06:05:34.291Z,47.97
2023-03-14T06:06:06.327Z,48.65
2023-03-14T06:06:38.149Z,48.67
2023-03-14T06:07:09.945Z,49.96
2023-03-14T06:07:41.761Z,49.95
2023-03-14T06:08:13.530Z,49.42
2023-03-14T06:08:45.262Z,48.97
2023-03-14T06:09:17.318Z,48.24
2023-03-14T06:09:49.093Z,48.11
2023-03-14T06:10:21.018Z,49.25
2023-03-14T06:10:53.445Z,49.39
2023-03-14T06:11:25.273Z,49.66
2023-03-14T06:11:57.116Z,50.60
2023-03-14T06:12:31.230Z,50.29
2023-03-14T06:13:03.541Z,50.42
2023-03-14T06:13:35.344Z,50.51
2023-03-14T06:14:07.185Z,50.17
2023-03-14T06:14:38.958Z,49.50
2023-03-14T06:15:11.383Z,49.88
2023-03-14T06:15:44.077Z,50.60
2023-03-14T06:16:15.972Z,50.30
2023-03-14T06:16:50.235Z,49.59
2023-03-14T06:17:22.429Z,50.15
2023-03-14T06:17:56.479Z,50.42
2023-03-14T06:18:28.296Z,50.79
2023-03-14T06:19:00.135Z,50.50
2023-03-14T06:19:31.914Z,50.55
2023-03-14T06:20:03.966Z,50.49
2023-03-14T06:20:41.679Z,49.53
2023-03-14T06:21:13.618Z,48.93
2023-03-14T06:21:45.593Z,49.93
2023-03-14T06:22:17.653Z,50.04
2023-03-14T06:22:49.480Z,50.03
2023-03-14T06:23:21.296Z,49.49
2023-03-14T06:23:53.072Z,48.00
2023-03-14T06:24:24.889Z,49.35
2023-03-14T06:24:56.729Z,48.07
2023-03-14T06:25:28.554Z,47.72
2023-03-14T06:26:00.597Z,48.01
2023-03-14T06:26:32.402Z,49.72
2023-03-14T06:27:04.609Z,49.58
2023-03-14T06:27:36.460Z,49.19
2023-03-14T06:28:08.227Z,49.03
2023-03-14T06:28:40.276Z,47.45
2023-03-14T06:29:12.265Z,47.25
2023-03-14T06:29:44.085Z,47.57
2023-03-14T06:30:16.112Z,47.74
2023-03-14T06:30:47.912Z,47.53
2023-03-14T06:31:19.774Z,48.15
2023-03-14T06:31:51.593Z,48.09
2023-03-14T06:32:23.699Z,48.36
2023-03-14T06:32:56.629Z,47.56
2023-03-14T06:33:28.503Z,46.96
2023-03-14T06:34:00.491Z,47.75
2023-03-14T06:34:32.431Z,47.25
2023-03-14T06:35:04.323Z,47.07
2023-03-14T06:35:36.160Z,47.77
2023-03-14T06:36:08.505Z,47.16
2023-03-14T06:36:40.488Z,47.49
2023-03-14T06:37:12.613Z,48.26
2023-03-14T06:37:45.400Z,47.79
2023-03-14T06:38:17.214Z,46.86
2023-03-14T06:38:49.056Z,46.46
2023-03-14T06:39:20.814Z,46.27
2023-03-14T06:39:52.567Z,45.99
2023-03-14T06:40:24.556Z,45.97
2023-03-14T06:40:56.383Z,46.34
2023-03-14T06:41:28.216Z,47.11
2023-03-14T06:42:00.141Z,45.08
2023-03-14T06:42:31.996Z,44.14
2023-03-14T06:43:03.757Z,43.83
2023-03-14T06:43:35.558Z,42.96
2023-03-14T06:44:07.271Z,42.68
2023-03-14T06:44:38.991Z,42.54
2023-03-14T06:45:11.859Z,43.36
2023-03-14T06:45:43.769Z,42.99
2023-03-14T06:46:16.559Z,42.67
2023-03-14T06:46:48.466Z,42.58
2023-03-14T06:47:20.270Z,41.99
2023-03-14T06:47:52.005Z,43.88
2023-03-14T06:48:23.942Z,43.15
2023-03-14T06:48:55.724Z,43.17
2023-03-14T06:49:27.573Z,42.87
2023-03-14T06:49:59.292Z,42.34
2023-03-14T06:50:31.260Z,42.34
2023-03-14T06:51:03.090Z,43.17
2023-03-14T06:51:35.162Z,41.92
2023-03-14T06:52:06.928Z,41.64
2023-03-14T06:52:42.298Z,41.51
2023-03-14T06:53:14.157Z,41.54
2023-03-14T06:53:45.888Z,42.77
2023-03-14T06:54:17.666Z,42.01
2023-03-14T06:54:49.476Z,41.21
2023-03-14T06:55:22.758Z,41.53
2023-03-14T06:55:54.689Z,41.51
2023-03-14T06:56:26.433Z,42.69
2023-03-14T06:56:58.196Z,41.34
2023-03-14T06:57:30.252Z,40.82
2023-03-14T06:58:02.048Z,40.42
2023-03-14T06:58:33.852Z,40.06
2023-03-14T06:59:05.594Z,38.97
2023-03-14T06:59:37.373Z,41.08
2023-03-14T07:00:09.898Z,39.81
2023-03-14T07:00:41.989Z,39.99
2023-03-14T07:01:22.694Z,39.72
2023-03-14T07:01:54.500Z,40.02
2023-03-14T07:02:39.964Z,39.25
2023-03-14T07:03:15.508Z,39.94
2023-03-14T07:03:47.698Z,39.50
2023-03-14T07:04:19.531Z,39.05
2023-03-14T07:04:51.357Z,39.79
2023-03-14T07:05:23.202Z,40.35
2023-03-14T07:05:55.032Z,39.99
2023-03-14T07:06:26.766Z,39.92